Latest Weather Observations for Esperance Airport

IDW60801

Issued at 6:33 am WST Friday 1 July 2016 (issued every 30 minutes, with the page automatically refreshed every 10 minutes)

About weather observations | Map of weather stations | Latest weather observations for WA | Other Formats
Station Details ID: 009542 Name: ESPERANCE AERO Lat: -33.68 Lon: 121.83 Height: 142.0 m
Data from the previous 72 hours. | See also: Recent months at Esperance Airport
Date/Time
WST
Temp
°C
App
Temp
°C
Dew
Point
°C
Rel
Hum
%
Delta-T
°C
Wind Press
QNH
hPa
Press
MSL
hPa
Rain since
9am
mm
Dir  Spd
km/h
Gust
km/h
Spd
kts
Gust
kts
01/06:30am 6.3 3.1 5.3 93 0.4 N 11 13 6 7 1028.0 1028.0 0.4
01/06:00am 6.4 2.8 5.2 92 0.5 NNW 13 15 7 8 1027.7 1027.7 0.4
01/05:30am 7.4 4.4 6.2 92 0.5 NNW 11 13 6 7 1027.5 1027.5 0.4
01/05:00am 7.7 5.3 6.8 94 0.4 NNW 9 15 5 8 1027.2 1027.2 0.4
01/04:30am 7.3 4.3 6.2 93 0.5 N 11 15 6 8 1027.1 1027.1 0.0
01/04:00am 7.3 4.3 6.2 93 0.5 N 11 13 6 7 1027.0 1027.0 0.0
01/03:30am 7.4 4.5 6.5 94 0.4 N 11 13 6 7 1026.9 1026.9 0.0
01/03:00am 7.6 5.2 6.9 95 0.3 N 9 11 5 6 1027.2 1027.2 0.0
01/02:30am 7.7 4.5 7.0 95 0.3 NNW 13 15 7 8 1027.2 1027.2 0.0
01/02:00am 6.9 4.3 6.0 94 0.4 NNW 9 11 5 6 1027.2 1027.2 0.0
01/01:30am 8.0 5.3 7.2 95 0.4 N 11 13 6 7 1027.1 1027.1 0.0
01/01:00am 8.1 5.4 7.3 95 0.4 N 11 13 6 7 1027.0 1027.0 0.0
01/12:30am 8.0 4.9 7.2 95 0.4 N 13 13 7 7 1027.0 1027.0 0.0
01/12:00am 8.1 5.0 7.3 95 0.4 N 13 13 7 7 1026.9 1026.9 0.0
 
Date/Time
WST
Temp
°C
App
Temp
°C
Dew
Point
°C
Rel
Hum
%
Delta-T
°C
Wind Press
QNH
hPa
Press
MSL
hPa
Rain since
9am
mm
Dir  Spd
km/h
Gust
km/h
Spd
kts
Gust
kts
30/11:30pm 8.2 5.5 7.4 95 0.4 N 11 13 6 7 1027.2 1027.2 0.0
30/11:00pm 8.4 5.8 7.6 95 0.4 N 11 13 6 7 1027.3 1027.3 0.0
30/10:30pm 8.2 5.9 7.3 94 0.4 NNW 9 11 5 6 1027.4 1027.4 0.0
30/10:00pm 8.5 6.2 7.6 94 0.4 N 9 11 5 6 1027.3 1027.3 0.0
30/09:30pm 8.5 5.9 7.6 94 0.4 N 11 13 6 7 1027.2 1027.2 0.0
30/09:00pm 8.6 6.0 7.7 94 0.4 N 11 13 6 7 1027.1 1027.1 0.0
30/08:30pm 8.5 6.5 7.3 92 0.6 NNW 7 9 4 5 1026.9 1026.9 0.0
30/08:00pm 10.2 9.9 8.8 91 0.7 CALM 0 0 0 0 1026.6 1026.6 0.0
30/07:30pm 10.1 9.8 8.7 91 0.7 CALM 0 0 0 0 1026.4 1026.4 0.0
30/07:00pm 9.8 9.4 8.2 90 0.8 CALM 0 0 0 0 1026.1 1026.1 0.0
30/06:30pm 10.8 9.4 8.9 88 0.9 W 6 7 3 4 1025.8 1025.8 0.0
30/06:00pm 11.4 9.9 9.3 87 1.1 W 7 7 4 4 1025.3 1025.3 0.0
30/05:30pm 11.5 10.1 8.9 84 1.3 W 6 7 3 4 1024.9 1024.9 0.0
30/05:00pm 12.3 10.4 9.1 81 1.6 SW 9 9 5 5 1024.8 1024.8 0.0
30/04:30pm 14.0 11.3 9.0 72 2.6 SW 13 17 7 9 1024.5 1024.5 0.0
30/04:00pm 14.8 11.4 9.2 69 2.9 SW 17 20 9 11 1024.4 1024.4 0.0
30/03:30pm 15.4 11.6 8.9 65 3.3 SW 19 22 10 12 1024.3 1024.3 0.0
30/03:00pm 16.0 11.9 8.5 61 3.8 SW 20 28 11 15 1024.1 1024.1 0.0
30/02:30pm 16.1 11.9 8.3 60 4.0 WSW 20 30 11 16 1023.9 1023.9 0.0
30/02:00pm 16.4 13.0 9.1 62 3.8 SW 17 22 9 12 1023.6 1023.7 0.0
30/01:30pm 16.2 12.3 9.4 64 3.6 WSW 20 24 11 13 1023.7 1023.8 0.0
30/01:00pm 15.5 11.7 9.0 65 3.3 WSW 19 24 10 13 1024.0 1024.0 0.0
30/12:30pm 16.3 12.4 9.5 64 3.6 WSW 20 28 11 15 1024.2 1024.2 0.0
30/12:00pm 15.4 11.2 9.7 69 3.0 W 22 32 12 17 1024.5 1024.5 0.0
30/11:30am 14.8 10.9 9.6 71 2.7 WSW 20 28 11 15 1024.9 1024.9 0.0
30/11:00am 14.6 10.9 9.4 71 2.7 W 19 24 10 13 1025.4 1025.4 0.0
30/10:30am 14.0 10.6 9.2 73 2.5 W 17 20 9 11 1025.5 1025.5 0.0
30/10:00am 12.3 8.6 8.0 75 2.1 W 17 24 9 13 1025.6 1025.6 0.0
30/09:30am 11.0 6.5 7.1 77 1.9 W 20 26 11 14 1025.6 1025.6 0.0
30/09:00am 10.7 6.4 7.0 78 1.8 WNW 19 26 10 14 1025.4 1025.4 0.4
30/08:30am 9.1 4.6 6.2 82 1.3 WNW 19 24 10 13 1025.2 1025.2 0.4
30/08:00am 8.4 4.1 5.3 81 1.4 WNW 17 22 9 12 1024.8 1024.8 0.4
30/07:30am 7.4 3.4 5.0 85 1.1 NW 15 19 8 10 1024.5 1024.5 0.4
30/07:00am 7.2 3.2 4.9 85 1.0 NW 15 19 8 10 1024.2 1024.2 0.4
30/06:30am 7.2 3.2 5.0 86 1.0 WNW 15 19 8 10 1023.9 1023.9 0.4
30/06:00am 7.3 2.9 5.0 85 1.0 WNW 17 20 9 11 1023.4 1023.5 0.4
30/05:30am 7.4 3.4 5.0 85 1.1 WNW 15 19 8 10 1023.1 1023.2 0.4
30/05:00am 7.3 3.0 5.1 86 1.0 WNW 17 19 9 10 1023.1 1023.2 0.4
30/04:30am 7.9 3.7 5.5 85 1.1 WNW 17 22 9 12 1022.8 1022.8 0.4
30/04:00am 7.6 3.3 5.4 86 1.0 WNW 17 19 9 10 1022.7 1022.7 0.4
30/03:30am 8.2 4.8 6.0 86 1.0 WNW 13 17 7 9 1022.6 1022.6 0.4
30/03:00am 8.4 4.3 6.2 86 1.0 WNW 17 20 9 11 1022.7 1022.7 0.4
30/02:30am 8.3 3.8 6.3 87 0.9 WNW 19 22 10 12 1022.6 1022.6 0.4
30/02:00am 8.3 4.0 6.8 90 0.7 WNW 19 22 10 12 1022.6 1022.6 0.4
30/01:30am 8.4 4.5 6.9 90 0.7 NW 17 20 9 11 1022.3 1022.3 0.4
30/01:00am 8.8 5.0 7.4 91 0.7 WNW 17 20 9 11 1022.1 1022.1 0.4
30/12:30am 9.3 5.5 7.7 90 0.8 WNW 17 20 9 11 1021.8 1021.8 0.4
30/12:00am 10.0 5.9 8.8 92 0.6 WNW 20 24 11 13 1021.9 1021.9 0.4
 
Date/Time
WST
Temp
°C
App
Temp
°C
Dew
Point
°C
Rel
Hum
%
Delta-T
°C
Wind Press
QNH
hPa
Press
MSL
hPa
Rain since
9am
mm
Dir  Spd
km/h
Gust
km/h
Spd
kts
Gust
kts
29/11:30pm 9.7 6.2 8.6 93 0.5 WNW 17 20 9 11 1021.6 1021.6 0.4
29/11:00pm 10.2 6.8 9.1 93 0.5 WNW 17 20 9 11 1021.6 1021.6 0.4
29/10:30pm 9.8 6.7 8.7 93 0.5 NW 15 19 8 10 1021.4 1021.4 0.4
29/10:00pm 10.4 7.8 9.3 93 0.5 WNW 13 19 7 10 1021.3 1021.3 0.4
29/09:30pm 10.3 7.7 9.2 93 0.6 W 13 19 7 10 1021.1 1021.1 0.4
29/09:00pm 10.6 8.0 9.5 93 0.6 WSW 13 22 7 12 1021.0 1021.0 0.4
29/08:30pm 11.0 6.8 9.9 93 0.6 WNW 22 30 12 16 1020.6 1020.6 0.2
29/08:18pm 10.9 8.0 9.8 93 0.6 WNW 15 20 8 11 1020.5 1020.5 0.2
29/08:00pm 10.4 7.8 9.2 92 0.6 NW 13 15 7 8 1020.3 1020.3 0.0
29/07:30pm 10.5 8.6 8.9 90 0.8 W 9 11 5 6 1019.9 1019.9 0.0
29/07:00pm 11.1 8.9 9.5 90 0.8 WSW 11 15 6 8 1019.7 1019.7 0.0
29/06:30pm 11.5 8.3 9.8 89 0.9 WSW 17 22 9 12 1019.3 1019.3 0.0
29/06:09pm 12.5 8.9 10.6 88 1.0 SW 20 37 11 20 1019.2 1019.2 0.0
29/06:00pm 12.1 9.8 10.3 89 0.9 SSW 13 19 7 10 1019.0 1019.0 0.0
29/05:30pm 12.0 9.4 9.4 84 1.3 WSW 13 17 7 9 1018.4 1018.4 0.0
29/05:00pm 13.1 8.8 9.5 79 1.8 WSW 22 30 12 16 1018.0 1018.0 0.0
29/04:30pm 13.9 9.2 9.3 74 2.4 WSW 24 33 13 18 1017.6 1017.6 0.0
29/04:00pm 14.4 8.5 9.0 70 2.8 WSW 30 41 16 22 1017.0 1016.9 0.0
29/03:30pm 15.1 9.6 9.0 67 3.1 WSW 28 39 15 21 1016.2 1016.2 0.0
29/03:00pm 15.9 10.1 9.3 65 3.4 SW 30 37 16 20 1015.8 1015.8 0.0
29/02:30pm 16.9 10.8 9.6 62 3.8 W 32 37 17 20 1015.3 1015.3 0.0
29/02:00pm 16.5 10.7 9.4 63 3.7 W 30 39 16 21 1014.8 1014.8 0.0
29/01:30pm 15.6 11.0 9.5 67 3.2 WSW 24 32 13 17 1014.7 1014.7 0.0
29/01:00pm 17.1 11.0 9.8 62 3.9 W 32 41 17 22 1014.5 1014.5 0.0
29/12:30pm 16.7 10.6 9.9 64 3.6 W 32 41 17 22 1014.7 1014.7 0.0
29/12:00pm 15.3 10.1 10.1 71 2.7 W 28 33 15 18 1014.8 1014.8 0.0
29/11:30am 16.4 10.7 9.8 65 3.5 WSW 30 39 16 21 1014.9 1014.9 0.0
29/11:00am 14.4 8.2 9.4 72 2.6 W 32 41 17 22 1015.1 1015.1 0.0
29/10:30am 14.9 8.8 9.9 72 2.6 W 32 39 17 21 1015.1 1015.1 0.0
29/10:00am 14.6 8.1 10.2 75 2.3 W 35 44 19 24 1015.0 1015.0 0.0
29/09:30am 14.4 9.2 10.4 77 2.1 W 28 35 15 19 1014.8 1014.8 0.0
29/09:00am 13.6 9.3 10.8 83 1.5 W 24 32 13 17 1014.6 1014.6 0.0
29/08:30am 12.9 9.1 11.1 89 1.0 WNW 22 28 12 15 1014.3 1014.3 0.0
29/08:00am 12.2 8.9 10.9 92 0.7 WNW 19 22 10 12 1014.1 1014.1 0.0
29/07:30am 11.6 8.2 10.7 94 0.5 WNW 19 24 10 13 1013.7 1013.7 0.0
29/07:00am 11.3 8.6 10.2 93 0.6 WNW 15 20 8 11 1013.4 1013.4 0.0
29/06:30am 11.8 8.4 10.5 92 0.7 WNW 19 22 10 12 1013.0 1013.0 0.0
29/06:00am 12.8 9.0 11.2 90 0.8 WNW 22 28 12 15 1012.4 1012.4 0.0
29/05:30am 12.9 9.5 11.1 89 1.0 WNW 20 28 11 15 1012.1 1012.1 0.0
29/05:00am 12.8 9.3 11.0 89 1.0 NW 20 26 11 14 1012.0 1012.0 0.0
29/04:30am 12.9 9.4 11.0 88 1.0 NW 20 26 11 14 1011.9 1011.9 0.0
29/04:00am 12.9 9.1 11.0 88 1.0 WNW 22 32 12 17 1012.0 1012.0 0.0
29/03:30am 13.2 8.6 10.9 86 1.2 NW 26 35 14 19 1011.8 1011.8 0.0
29/03:00am 12.8 8.1 10.7 87 1.1 NW 26 35 14 19 1011.8 1011.8 0.0
29/02:30am 13.0 8.6 10.5 85 1.3 NW 24 32 13 17 1011.6 1011.6 0.0
29/02:00am 13.2 8.8 10.4 83 1.5 NW 24 32 13 17 1011.6 1011.6 0.0
29/01:30am 13.1 8.2 10.1 82 1.6 WNW 26 35 14 19 1011.6 1011.6 0.0
29/01:00am 13.2 7.8 9.6 79 1.9 NW 28 35 15 19 1011.6 1011.6 0.0
29/12:30am 13.3 8.1 8.8 74 2.3 NW 26 37 14 20 1011.4 1011.4 0.0
29/12:00am 13.4 9.0 8.9 74 2.3 NW 22 33 12 18 1011.5 1011.5 0.0
 
Date/Time
WST
Temp
°C
App
Temp
°C
Dew
Point
°C
Rel
Hum
%
Delta-T
°C
Wind Press
QNH
hPa
Press
MSL
hPa
Rain since
9am
mm
Dir  Spd
km/h
Gust
km/h
Spd
kts
Gust
kts
28/11:30pm 13.3 8.9 8.8 74 2.3 NNW 22 30 12 16 1011.4 1011.4 0.0
28/11:00pm 13.3 8.9 8.8 74 2.3 NNW 22 30 12 16 1011.7 1011.7 0.0
28/10:30pm 13.2 8.7 8.5 73 2.4 NNW 22 32 12 17 1012.0 1012.0 0.0
28/10:00pm 14.1 9.0 7.6 65 3.2 NNW 24 33 13 18 1012.1 1012.1 0.0
28/09:30pm 14.1 9.9 7.6 65 3.2 NNW 19 24 10 13 1012.2 1012.2 0.0
28/09:00pm 13.7 8.9 7.5 66 3.1 NNW 22 30 12 16 1012.5 1012.5 0.0
28/08:30pm 12.8 8.6 7.5 70 2.6 NNW 19 22 10 12 1012.6 1012.6 0.0
28/08:00pm 12.9 8.5 6.5 65 3.1 N 19 22 10 12 1012.6 1012.6 0.0
28/07:30pm 12.7 8.6 6.3 65 3.1 N 17 20 9 11 1012.6 1012.6 0.0
28/07:00pm 12.4 8.5 7.1 70 2.6 N 17 19 9 10 1012.6 1012.6 0.0
28/06:30pm 13.6 10.1 7.2 65 3.1 N 15 17 8 9 1012.6 1012.6 0.0
28/06:00pm 13.8 10.3 7.3 65 3.2 N 15 17 8 9 1012.5 1012.5 0.0
28/05:30pm 13.0 10.2 7.0 67 2.9 N 11 13 6 7 1012.3 1012.3 0.0
28/05:00pm 14.0 10.8 6.8 62 3.5 N 13 15 7 8 1012.2 1012.2 0.0
28/04:30pm 15.3 12.0 6.3 55 4.4 NNW 13 17 7 9 1012.2 1012.2 0.0
28/04:00pm 16.3 12.1 5.9 50 5.1 NNW 17 20 9 11 1011.9 1011.9 0.0
28/03:30pm 17.8 13.6 5.7 45 5.9 NNW 17 24 9 13 1012.0 1012.0 0.0
28/03:00pm 18.0 13.1 4.9 42 6.3 NNW 20 28 11 15 1011.9 1011.9 0.0
28/02:30pm 17.9 12.6 5.2 43 6.2 NNW 22 30 12 16 1011.8 1011.8 0.0
28/02:00pm 17.9 13.2 6.1 46 5.8 NW 20 28 11 15 1011.8 1011.8 0.0
28/01:30pm 17.5 11.9 5.4 45 5.9 NNW 24 32 13 17 1012.1 1012.1 0.0
28/01:00pm 17.4 11.3 4.7 43 6.1 NW 26 37 14 20 1012.5 1012.5 0.0
28/12:30pm 17.4 12.7 6.0 47 5.6 NNW 20 28 11 15 1013.0 1013.0 0.0
28/12:00pm 16.4 11.7 6.2 51 5.0 NNW 20 30 11 16 1013.5 1013.5 0.0
28/11:30am 15.6 10.5 5.8 52 4.7 NNW 22 30 12 16 1014.2 1014.2 0.0
28/11:00am 15.2 10.5 6.0 54 4.5 NNW 20 26 11 14 1014.8 1014.8 0.0
28/10:30am 14.1 9.3 5.7 57 4.0 N 20 26 11 14 1015.0 1015.0 0.0
28/10:00am 12.9 8.1 5.6 61 3.4 N 20 28 11 15 1015.3 1015.3 0.0
28/09:30am 11.8 6.4 4.5 61 3.3 N 22 28 12 15 1015.8 1015.8 0.0
28/09:00am 10.1 5.0 4.3 67 2.6 N 20 28 11 15 1015.9 1015.9 0.0
28/08:30am 8.4 3.2 3.3 70 2.2 N 20 26 11 14 1016.1 1016.1 0.0
28/08:00am 7.2 2.0 2.7 73 1.9 N 19 24 10 13 1016.2 1016.2 0.0
28/07:30am 6.0 0.5 2.1 76 1.6 N 20 26 11 14 1016.3 1016.3 0.0
28/07:00am 5.2 -0.1 2.0 80 1.3 N 19 24 10 13 1016.1 1016.1 0.0

Other Formats:

Comma delimited format used in spreadsheet applications
http://www.bom.gov.au/fwo/IDW60801/IDW60801.95638.axf

JavaScript Object Notation format (JSON) in row-major order
http://www.bom.gov.au/fwo/IDW60801/IDW60801.95638.json